Time;durP1;ratioP1;P1;durP2;ratioP2;P2;SDS_P1;SDS_P2;PMS_P1;PMS_P2;Temp;Humidity;BMP_temperature;BMP_pressure;BME280_temperature;BME280_humidity;BME280_pressure;Samples;Min_cycle;Max_cycle;Signal;HPM_P1;HPM_P2
2022/05/18 00:00:07;;;;;;;352.77;230.83;;;;;;;22.62;54.87;99307.91;337156;29;1190;-78
2022/05/18 00:00:23;;;;;;;353.13;230.40;;;;;;;22.59;54.96;99295.72;336956;29;914;-78
2022/05/18 00:00:33;;;;;;;348.30;223.20;;;;;;;22.56;55.22;99301.34;339615;29;1091;-78
2022/05/18 00:00:48;;;;;;;348.83;224.73;;;;;;;22.61;55.29;99301.75;341097;29;846;-78
2022/05/18 00:00:59;;;;;;;351.13;229.88;;;;;;;22.59;55.18;99290.38;341077;29;837;-78
2022/05/18 00:01:10;;;;;;;355.85;233.70;;;;;;;22.62;55.23;99292.75;336406;29;1842;-77
2022/05/18 00:01:21;;;;;;;356.93;232.50;;;;;;;22.63;54.83;99299.75;334731;29;892;-78
2022/05/18 00:01:31;;;;;;;358.20;232.68;;;;;;;22.65;54.70;99297.78;335783;29;1732;-77
2022/05/18 00:01:42;;;;;;;353.70;231.53;;;;;;;22.67;55.06;99294.97;336904;29;1451;-78
2022/05/18 00:01:53;;;;;;;353.90;234.03;;;;;;;22.66;54.84;99299.47;335831;29;815;-78
2022/05/18 00:02:04;;;;;;;353.00;234.68;;;;;;;22.63;55.13;99294.44;335729;29;1055;-78
2022/05/18 00:02:15;;;;;;;353.25;234.70;;;;;;;22.63;54.85;99298.94;336963;29;1082;-77
2022/05/18 00:02:26;;;;;;;353.27;234.32;;;;;;;22.61;55.19;99290.22;337084;29;795;-78
2022/05/18 00:02:36;;;;;;;353.07;232.53;;;;;;;22.60;55.04;99288.53;335796;29;1351;-78
2022/05/18 00:02:47;;;;;;;351.42;228.98;;;;;;;22.60;55.11;99293.88;337138;29;807;-78
2022/05/18 00:03:04;;;;;;;351.50;229.33;;;;;;;22.59;55.17;99293.03;339680;29;1241;-78
2022/05/18 00:03:17;;;;;;;349.70;230.60;;;;;;;22.58;55.28;99302.03;336193;29;1287;-78
2022/05/18 00:03:33;;;;;;;349.40;226.82;;;;;;;22.56;55.17;99298.66;337097;29;919;-78
2022/05/18 00:03:44;;;;;;;352.77;228.60;;;;;;;22.45;55.71;99291.72;334689;29;839;-78
2022/05/18 00:03:54;;;;;;;354.38;231.05;;;;;;;22.47;55.39;99294.25;336029;29;1146;-77
2022/05/18 00:04:05;;;;;;;354.00;231.53;;;;;;;22.46;55.04;99292.56;339670;29;1416;-77
2022/05/18 00:04:16;;;;;;;353.77;230.18;;;;;;;22.46;55.42;99292.56;338024;29;1704;-77
2022/05/18 00:04:27;;;;;;;354.15;227.60;;;;;;;22.46;55.35;99293.41;337002;29;846;-77
2022/05/18 00:04:38;;;;;;;356.67;229.05;;;;;;;22.47;55.24;99299.56;334606;29;847;-77
2022/05/18 00:04:48;;;;;;;359.30;232.10;;;;;;;22.48;55.34;99296.75;339641;29;1213;-78
2022/05/18 00:04:58;;;;;;;358.63;232.93;;;;;;;22.48;54.92;99298.59;339668;29;1184;-78
2022/05/18 00:05:09;;;;;;;357.93;232.77;;;;;;;22.50;55.12;99299.28;334525;29;1332;-78
2022/05/18 00:05:19;;;;;;;354.00;229.68;;;;;;;22.51;55.28;99298.28;339973;29;846;-77
2022/05/18 00:05:31;;;;;;;354.00;231.90;;;;;;;22.52;55.29;99299.97;340247;29;1406;-77
2022/05/18 00:05:42;;;;;;;349.40;226.73;;;;;;;22.53;54.93;99297.13;334319;29;1295;-77
2022/05/18 00:05:53;;;;;;;349.10;224.98;;;;;;;22.56;55.57;99293.34;339279;29;1468;-77
2022/05/18 00:06:03;;;;;;;348.67;222.85;;;;;;;22.57;55.03;99300.34;339375;29;1409;-77
2022/05/18 00:06:14;;;;;;;349.98;225.73;;;;;;;22.55;55.40;99297.00;338319;29;1564;-77
2022/05/18 00:06:24;;;;;;;352.93;229.97;;;;;;;22.54;55.13;99298.81;338001;29;1264;-77
2022/05/18 00:06:35;;;;;;;353.85;230.77;;;;;;;22.56;55.21;99294.16;339795;29;1020;-77
2022/05/18 00:06:45;;;;;;;355.10;229.77;;;;;;;22.57;55.12;99293.19;335877;29;1138;-77
2022/05/18 00:06:56;;;;;;;355.65;231.77;;;;;;;22.57;55.39;99295.00;339472;29;1331;-77
2022/05/18 00:07:06;;;;;;;354.77;231.97;;;;;;;22.57;54.79;99295.00;339222;29;1248;-77
2022/05/18 00:07:16;;;;;;;354.27;231.13;;;;;;;22.60;54.88;99300.06;337133;29;835;-77
2022/05/18 00:07:27;;;;;;;352.88;231.80;;;;;;;22.60;55.17;99294.72;337136;29;954;-77
2022/05/18 00:07:37;;;;;;;353.67;232.90;;;;;;;22.61;55.07;99291.06;337471;29;1499;-77
2022/05/18 00:07:48;;;;;;;352.35;233.32;;;;;;;22.64;55.16;99295.28;336978;29;1316;-78
2022/05/18 00:07:59;;;;;;;352.07;231.83;;;;;;;22.65;54.77;99295.13;337129;29;4526;-77
2022/05/18 00:08:10;;;;;;;350.67;228.48;;;;;;;22.64;55.21;99296.13;336482;29;5319;-77
2022/05/18 00:08:20;;;;;;;354.27;230.80;;;;;;;22.67;54.88;99295.81;339148;29;3772;-77
2022/05/18 00:08:36;;;;;;;354.58;228.98;;;;;;;22.66;55.13;99303.97;338324;29;2062;-77
2022/05/18 00:08:47;;;;;;;355.67;231.13;;;;;;;22.68;54.79;99302.84;333566;29;1322;-77
2022/05/18 00:08:58;;;;;;;353.38;230.50;;;;;;;22.70;54.58;99298.19;338277;29;1248;-77
2022/05/18 00:09:08;;;;;;;354.03;232.90;;;;;;;22.69;54.78;99291.19;338664;29;851;-77
2022/05/18 00:09:18;;;;;;;355.23;231.52;;;;;;;22.70;54.73;99295.53;339977;29;1578;-77
2022/05/18 00:09:29;;;;;;;353.40;228.67;;;;;;;22.71;54.56;99291.88;339741;29;1500;-77
2022/05/18 00:09:39;;;;;;;353.65;227.27;;;;;;;22.72;55.08;99298.03;336994;29;1311;-77
2022/05/18 00:09:51;;;;;;;356.63;232.07;;;;;;;22.72;54.84;99288.22;340018;29;1345;-77
2022/05/18 00:10:01;;;;;;;356.00;232.48;;;;;;;22.70;54.67;99290.19;338520;29;859;-77
2022/05/18 00:10:11;;;;;;;353.48;228.43;;;;;;;22.68;54.55;99297.50;341131;29;771;-77
2022/05/18 00:10:22;;;;;;;351.97;228.20;;;;;;;22.69;54.83;99301.84;336264;29;1191;-77
2022/05/18 00:10:33;;;;;;;353.70;229.45;;;;;;;22.69;54.93;99288.50;335823;29;925;-78
2022/05/18 00:10:46;;;;;;;353.65;229.18;;;;;;;22.68;54.94;99292.16;336772;29;1500;-78
2022/05/18 00:10:57;;;;;;;351.67;229.32;;;;;;;22.69;54.85;99296.50;339559;29;1267;-78
2022/05/18 00:11:11;;;;;;;350.23;229.77;;;;;;;22.70;54.56;99295.53;338289;29;1302;-78
2022/05/18 00:11:21;;;;;;;347.98;226.10;;;;;;;22.71;54.85;99291.88;334467;29;1539;-78
2022/05/18 00:11:32;;;;;;;349.17;224.43;;;;;;;22.72;54.66;99293.56;337234;29;796;-77
2022/05/18 00:11:43;;;;;;;350.58;225.68;;;;;;;22.71;54.80;99286.53;337252;29;779;-77
2022/05/18 00:11:53;;;;;;;351.60;228.77;;;;;;;22.75;54.89;99293.25;338352;29;1410;-77
2022/05/18 00:12:04;;;;;;;354.23;231.27;;;;;;;22.74;54.71;99290.75;335783;29;1027;-77
2022/05/18 00:12:16;;;;;;;354.60;232.48;;;;;;;22.72;54.62;99288.22;337038;29;966;-77
2022/05/18 00:12:27;;;;;;;353.63;230.85;;;;;;;22.70;55.18;99287.53;339565;29;1447;-77
2022/05/18 00:12:48;;;;;;;350.35;230.52;;;;;;;22.74;54.90;99291.56;336868;29;1300;-78
2022/05/18 00:12:58;;;;;;;351.90;232.60;;;;;;;22.73;54.84;99283.72;336854;29;1117;-78
2022/05/18 00:13:09;;;;;;;352.63;232.52;;;;;;;22.74;54.70;99294.25;338214;29;1968;-78
2022/05/18 00:13:19;;;;;;;352.07;234.13;;;;;;;22.77;54.77;99290.44;339479;29;893;-77
2022/05/18 00:13:30;;;;;;;353.77;233.15;;;;;;;22.77;54.92;99285.09;335783;29;856;-77
2022/05/18 00:13:41;;;;;;;355.07;236.97;;;;;;;22.74;54.55;99290.75;335850;29;1199;-77
2022/05/18 00:13:52;;;;;;;352.75;235.85;;;;;;;22.72;54.74;99293.56;338343;29;1403;-77
2022/05/18 00:14:02;;;;;;;352.02;236.20;;;;;;;22.70;54.87;99289.34;337013;29;1404;-77
2022/05/18 00:14:13;;;;;;;353.37;236.40;;;;;;;22.67;54.58;99287.81;334682;29;831;-77
2022/05/18 00:14:23;;;;;;;354.53;235.20;;;;;;;22.66;54.65;99283.47;336344;29;1687;-77
2022/05/18 00:14:34;;;;;;;356.23;231.27;;;;;;;22.66;54.93;99283.47;340170;29;1092;-77
2022/05/18 00:14:44;;;;;;;356.53;229.37;;;;;;;22.66;54.78;99283.47;339610;29;1095;-77
2022/05/18 00:14:55;;;;;;;355.15;228.77;;;;;;;22.67;54.88;99286.97;338409;29;1100;-77
2022/05/18 00:15:05;;;;;;;354.30;230.53;;;;;;;22.65;55.04;99281.78;338321;29;1282;-77
2022/05/18 00:15:17;;;;;;;352.52;228.65;;;;;;;22.65;54.61;99287.13;339699;29;1294;-77
2022/05/18 00:15:28;;;;;;;355.27;229.07;;;;;;;22.65;54.90;99280.94;337068;29;1430;-77
2022/05/18 00:15:39;;;;;;;355.13;229.82;;;;;;;22.67;55.28;99282.47;337728;29;1824;-76
2022/05/18 00:15:49;;;;;;;356.43;235.13;;;;;;;22.64;54.79;99272.09;338464;29;811;-76
2022/05/18 00:15:59;;;;;;;353.90;236.60;;;;;;;22.62;55.12;99281.25;338398;29;922;-76
2022/05/18 00:16:10;;;;;;;352.53;236.93;;;;;;;22.56;54.96;99277.31;337207;29;791;-77
2022/05/18 00:16:21;;;;;;;350.00;232.50;;;;;;;22.54;55.08;99280.16;339368;29;1423;-77
2022/05/18 00:16:32;;;;;;;349.13;230.15;;;;;;;22.55;55.35;99283.66;339538;29;1439;-77
2022/05/18 00:16:42;;;;;;;348.08;227.00;;;;;;;22.56;54.91;99277.31;337069;29;1257;-77
2022/05/18 00:16:53;;;;;;;349.67;231.80;;;;;;;22.55;55.17;99276.50;338378;29;1290;-77
2022/05/18 00:17:04;;;;;;;350.83;234.77;;;;;;;22.58;54.74;99265.53;337038;29;1241;-77
2022/05/18 00:17:14;;;;;;;352.63;237.88;;;;;;;22.59;54.97;99277.03;334214;29;3925;-76
2022/05/18 00:17:25;;;;;;;353.13;237.93;;;;;;;22.59;55.41;99274.38;337414;29;3254;-77
2022/05/18 00:17:35;;;;;;;355.33;239.15;;;;;;;22.56;55.12;99274.66;341105;29;909;-77
2022/05/18 00:17:46;;;;;;;355.90;239.40;;;;;;;22.52;55.39;99271.47;339148;29;1860;-77
2022/05/18 00:17:56;;;;;;;355.42;238.48;;;;;;;22.48;55.00;99270.09;336704;29;3423;-77
2022/05/18 00:18:07;;;;;;;353.33;235.60;;;;;;;22.45;55.32;99270.38;336917;29;1544;-77
2022/05/18 00:18:17;;;;;;;354.33;233.38;;;;;;;22.42;55.52;99265.34;336813;29;1404;-77
2022/05/18 00:18:28;;;;;;;356.13;230.73;;;;;;;22.40;55.48;99271.81;337045;29;1218;-78
2022/05/18 00:18:38;;;;;;;354.10;229.57;;;;;;;22.36;55.56;99271.25;335838;29;776;-77
2022/05/18 00:18:49;;;;;;;354.80;229.63;;;;;;;22.37;55.58;99272.94;338357;29;1643;-77
2022/05/18 00:18:59;;;;;;;355.08;231.02;;;;;;;22.37;55.70;99277.44;336921;29;1191;-77
2022/05/18 00:19:10;;;;;;;358.30;231.10;;;;;;;22.38;55.69;99271.09;338536;29;1390;-77
2022/05/18 00:19:20;;;;;;;357.77;232.45;;;;;;;22.38;55.32;99268.44;339774;29;1554;-77
2022/05/18 00:19:31;;;;;;;357.23;232.03;;;;;;;22.32;55.70;99255.69;338365;29;1280;-77
2022/05/18 00:19:41;;;;;;;356.15;230.30;;;;;;;22.29;55.39;99266.66;337203;29;848;-77
2022/05/18 00:19:52;;;;;;;355.52;228.18;;;;;;;22.28;55.77;99273.81;337892;29;815;-77
2022/05/18 00:20:02;;;;;;;353.20;225.23;;;;;;;22.27;55.69;99272.13;339760;29;1318;-77
2022/05/18 00:20:13;;;;;;;351.27;223.05;;;;;;;22.26;55.97;99267.78;338392;29;1329;-77
2022/05/18 00:20:24;;;;;;;351.17;221.33;;;;;;;22.30;55.77;99276.31;335959;29;1616;-77
2022/05/18 00:20:34;;;;;;;351.77;222.82;;;;;;;22.33;55.75;99271.53;336890;29;1451;-77
2022/05/18 00:20:44;;;;;;;351.57;225.23;;;;;;;22.33;55.73;99266.22;336677;29;1263;-77
2022/05/18 00:20:56;;;;;;;353.38;226.07;;;;;;;22.36;55.54;99273.09;338328;29;1202;-77
2022/05/18 00:21:06;;;;;;;353.02;225.10;;;;;;;22.34;55.46;99262.56;339675;29;889;-78
2022/05/18 00:21:17;;;;;;;353.88;226.18;;;;;;;22.32;55.22;99264.53;337107;29;1234;-78
2022/05/18 00:21:28;;;;;;;351.65;223.85;;;;;;;22.34;55.56;99267.06;336746;29;1381;-78
2022/05/18 00:21:38;;;;;;;351.30;223.20;;;;;;;22.32;55.83;99269.03;337144;29;768;-77
2022/05/18 00:21:48;;;;;;;350.17;221.53;;;;;;;22.31;55.77;99270.00;337154;29;795;-77
2022/05/18 00:21:59;;;;;;;352.30;225.10;;;;;;;22.28;55.51;99278.28;337127;29;1304;-78
2022/05/18 00:22:10;;;;;;;352.83;227.20;;;;;;;22.29;55.61;99270.16;335806;29;1212;-78
2022/05/18 00:22:20;;;;;;;353.33;229.48;;;;;;;22.30;55.67;99271.00;339107;29;1149;-78
2022/05/18 00:22:30;;;;;;;352.58;230.27;;;;;;;22.31;55.77;99278.00;340856;29;1358;-78
2022/05/18 00:22:45;;;;;;;354.53;231.37;;;;;;;22.33;55.77;99270.69;339685;29;881;-78
2022/05/18 00:22:58;;;;;;;352.05;225.88;;;;;;;22.38;55.34;99276.44;335724;29;1323;-78
2022/05/18 00:23:09;;;;;;;352.30;222.77;;;;;;;22.39;55.38;99272.78;338303;29;1443;-78
2022/05/18 00:23:19;;;;;;;354.17;223.07;;;;;;;22.38;55.05;99271.09;339662;29;1363;-78
2022/05/18 00:23:30;;;;;;;355.00;225.33;;;;;;;22.37;55.59;99272.09;335816;29;882;-78
2022/05/18 00:23:40;;;;;;;355.48;224.80;;;;;;;22.36;55.47;99276.59;339741;29;941;-78
2022/05/18 00:23:51;;;;;;;354.50;224.00;;;;;;;22.36;55.14;99273.09;341021;29;1634;-78
2022/05/18 00:24:01;;;;;;;353.58;225.20;;;;;;;22.36;55.34;99270.41;338499;29;1462;-78
2022/05/18 00:24:13;;;;;;;355.40;226.20;;;;;;;22.36;55.27;99276.59;333386;29;864;-78
2022/05/18 00:24:23;;;;;;;356.65;226.57;;;;;;;22.33;55.30;99271.53;335395;29;1526;-78
2022/05/18 00:24:34;;;;;;;357.10;226.80;;;;;;;22.30;55.44;99265.66;338368;29;1184;-78
2022/05/18 00:24:44;;;;;;;354.33;226.60;;;;;;;22.30;55.38;99273.66;338490;29;870;-78
2022/05/18 00:24:55;;;;;;;353.58;227.57;;;;;;;22.30;55.61;99271.00;338383;29;830;-78
2022/05/18 00:25:06;;;;;;;351.70;226.32;;;;;;;22.29;55.31;99269.31;339614;29;1625;-78
2022/05/18 00:25:18;;;;;;;352.98;228.05;;;;;;;22.29;55.82;99269.31;335374;29;1774;-78
2022/05/18 00:25:30;;;;;;;352.20;226.80;;;;;;;22.30;55.22;99266.50;335395;29;1420;-78
2022/05/18 00:25:41;;;;;;;353.73;228.48;;;;;;;22.32;55.77;99269.03;337133;29;1397;-77
2022/05/18 00:25:51;;;;;;;355.40;229.68;;;;;;;22.32;55.61;99271.69;338216;29;1214;-77
2022/05/18 00:26:02;;;;;;;355.50;229.80;;;;;;;22.34;55.21;99272.38;337291;29;759;-77
2022/05/18 00:26:12;;;;;;;358.00;230.27;;;;;;;22.37;55.70;99277.44;338277;29;1261;-77
2022/05/18 00:26:23;;;;;;;358.07;231.93;;;;;;;22.39;55.67;99270.97;334364;29;4782;-79
2022/05/18 00:26:34;;;;;;;356.58;233.80;;;;;;;22.41;55.42;99274.31;335483;29;5651;-78
2022/05/18 00:26:44;;;;;;;355.13;232.70;;;;;;;22.38;55.35;99258.63;337018;29;1365;-78
2022/05/18 00:26:54;;;;;;;357.23;233.90;;;;;;;22.42;55.13;99264.50;337977;29;1894;-78
2022/05/18 00:27:05;;;;;;;357.58;231.32;;;;;;;22.44;54.96;99270.53;334757;29;5959;-78
2022/05/18 00:27:16;;;;;;;353.40;228.07;;;;;;;22.45;55.33;99265.03;334519;29;1161;-78
2022/05/18 00:27:27;;;;;;;349.75;223.65;;;;;;;22.46;55.35;99266.72;337157;29;1317;-78
2022/05/18 00:27:37;;;;;;;351.20;225.53;;;;;;;22.47;55.40;99262.22;337036;29;1250;-78
2022/05/18 00:27:48;;;;;;;353.23;226.63;;;;;;;22.50;54.78;99267.28;337077;29;1426;-78
2022/05/18 00:27:58;;;;;;;356.37;229.13;;;;;;;22.50;55.03;99264.59;335764;29;856;-77
2022/05/18 00:28:09;;;;;;;353.67;226.98;;;;;;;22.49;54.89;99262.94;338458;29;1254;-77
2022/05/18 00:28:19;;;;;;;355.03;230.23;;;;;;;22.40;55.19;99261.13;339262;29;1490;-78
2022/05/18 00:28:29;;;;;;;353.97;232.07;;;;;;;22.36;55.40;99263.25;339729;29;1644;-78
2022/05/18 00:28:40;;;;;;;355.05;233.68;;;;;;;22.33;55.48;99265.38;338369;29;832;-78
2022/05/18 00:28:51;;;;;;;352.77;227.57;;;;;;;22.31;55.57;99272.66;337110;29;807;-78
2022/05/18 00:29:01;;;;;;;353.65;223.82;;;;;;;22.31;55.70;99265.50;339776;29;1213;-78
2022/05/18 00:29:12;;;;;;;352.27;220.32;;;;;;;22.32;55.28;99269.88;338338;29;1231;-78
2022/05/18 00:29:22;;;;;;;354.07;224.83;;;;;;;22.34;55.61;99267.06;335486;29;1627;-78
2022/05/18 00:29:34;;;;;;;350.70;227.07;;;;;;;22.35;55.67;99263.41;339653;29;1240;-77
2022/05/18 00:29:44;;;;;;;352.13;229.65;;;;;;;22.35;55.42;99260.72;339463;29;1583;-77
2022/05/18 00:29:54;;;;;;;351.15;223.57;;;;;;;22.36;55.58;99265.06;337691;29;1606;-77
2022/05/18 00:30:06;;;;;;;353.03;222.20;;;;;;;22.34;55.67;99254.56;337072;29;769;-77
2022/05/18 00:30:17;;;;;;;351.23;220.93;;;;;;;22.37;55.38;99256.09;338322;29;1321;-77
2022/05/18 00:30:28;;;;;;;349.85;224.68;;;;;;;22.38;55.22;99255.09;338366;29;810;-78
2022/05/18 00:30:39;;;;;;;350.65;225.88;;;;;;;22.38;55.42;99257.78;339717;29;897;-78
2022/05/18 00:30:49;;;;;;;352.17;228.20;;;;;;;22.40;55.71;99255.81;337214;29;740;-78
2022/05/18 00:31:00;;;;;;;352.20;229.73;;;;;;;22.37;55.06;99253.44;335823;29;867;-78
2022/05/18 00:31:12;;;;;;;353.45;230.95;;;;;;;22.43;55.43;99251.00;338539;29;806;-78
2022/05/18 00:31:22;;;;;;;355.80;232.38;;;;;;;22.45;55.22;99253.53;338361;29;1128;-78
2022/05/18 00:31:32;;;;;;;357.50;232.50;;;;;;;22.46;55.23;99256.06;339597;29;1603;-78
2022/05/18 00:31:46;;;;;;;357.23;234.57;;;;;;;22.47;55.34;99249.75;337239;29;891;-78
2022/05/18 00:31:57;;;;;;;354.40;233.30;;;;;;;22.49;55.07;99257.59;335769;29;1150;-78
2022/05/18 00:32:07;;;;;;;352.10;232.97;;;;;;;22.47;54.94;99252.41;337186;29;753;-78
2022/05/18 00:32:18;;;;;;;352.23;232.37;;;;;;;22.50;54.87;99256.59;337123;29;1241;-78
2022/05/18 00:32:28;;;;;;;352.05;232.25;;;;;;;22.50;55.29;99251.28;337223;29;1208;-78
2022/05/18 00:32:39;;;;;;;351.43;232.97;;;;;;;22.49;55.29;99250.44;341157;28;1295;-78
2022/05/18 00:32:49;;;;;;;350.13;233.35;;;;;;;22.46;55.09;99249.88;337150;29;1222;-78
2022/05/18 00:33:03;;;;;;;349.63;231.17;;;;;;;22.45;55.14;99253.53;334514;29;1319;-78
2022/05/18 00:33:13;;;;;;;350.85;228.75;;;;;;;22.40;55.18;99245.97;336953;29;1915;-78
2022/05/18 00:33:24;;;;;;;353.27;230.17;;;;;;;22.45;55.31;99256.19;339667;29;1210;-78
2022/05/18 00:33:34;;;;;;;355.45;233.00;;;;;;;22.45;55.17;99253.53;338448;29;1387;-78
2022/05/18 00:33:47;;;;;;;356.77;234.17;;;;;;;22.46;55.13;99250.72;334461;29;1222;-78
2022/05/18 00:33:57;;;;;;;353.58;230.30;;;;;;;22.41;55.12;99250.31;337146;29;1349;-78
2022/05/18 00:34:08;;;;;;;350.25;225.70;;;;;;;22.37;55.42;99242.75;338406;29;1327;-78
2022/05/18 00:34:19;;;;;;;350.88;225.02;;;;;;;22.38;55.48;99252.44;337959;29;1582;-78
2022/05/18 00:34:29;;;;;;;350.13;224.00;;;;;;;22.39;55.56;99246.13;337447;29;1023;-78
2022/05/18 00:34:40;;;;;;;350.55;224.70;;;;;;;22.43;55.03;99255.50;337396;29;1206;-78
2022/05/18 00:34:50;;;;;;;351.23;224.57;;;;;;;22.44;55.57;99257.19;337812;29;1722;-78
2022/05/18 00:35:00;;;;;;;353.70;228.43;;;;;;;22.46;54.98;99255.22;335956;29;937;-78
2022/05/18 00:35:11;;;;;;;353.23;230.38;;;;;;;22.46;55.18;99250.72;335759;29;1214;-78
2022/05/18 00:35:22;;;;;;;350.42;227.43;;;;;;;22.44;55.37;99249.19;339032;29;1213;-78
2022/05/18 00:35:33;;;;;;;349.80;226.50;;;;;;;22.40;55.46;99250.47;339024;29;3928;-77
2022/05/18 00:35:44;;;;;;;350.50;228.25;;;;;;;22.34;55.37;99251.88;337068;29;5835;-77
2022/05/18 00:35:56;;;;;;;347.27;226.17;;;;;;;22.33;55.49;99252.88;335675;29;1911;-78
2022/05/18 00:36:07;;;;;;;348.45;225.57;;;;;;;22.31;55.43;99246.00;340002;29;1837;-77
2022/05/18 00:36:17;;;;;;;348.67;223.85;;;;;;;22.30;55.74;99258.50;339417;29;3759;-77
2022/05/18 00:36:28;;;;;;;349.00;225.93;;;;;;;22.29;55.71;99250.66;336207;29;936;-78
2022/05/18 00:36:38;;;;;;;351.40;229.23;;;;;;;22.30;55.80;99252.31;334481;29;941;-78
2022/05/18 00:36:49;;;;;;;355.05;231.68;;;;;;;22.32;55.84;99253.03;338364;29;798;-78
2022/05/18 00:37:00;;;;;;;356.27;230.90;;;;;;;22.35;55.88;99258.06;339469;29;1342;-78
2022/05/18 00:37:11;;;;;;;353.08;227.98;;;;;;;22.36;55.73;99255.25;337865;29;1823;-78
2022/05/18 00:37:21;;;;;;;352.25;227.02;;;;;;;22.38;55.67;99252.44;335731;29;1200;-78
2022/05/18 00:37:32;;;;;;;353.07;225.37;;;;;;;22.38;55.66;99253.28;337321;29;815;-78
2022/05/18 00:37:42;;;;;;;354.93;225.10;;;;;;;22.39;55.52;99251.44;339631;29;1278;-78
2022/05/18 00:37:52;;;;;;;352.65;222.98;;;;;;;22.41;55.45;99253.00;340987;29;1235;-77
2022/05/18 00:38:03;;;;;;;353.97;226.03;;;;;;;22.41;55.74;99253.00;336993;29;1166;-78
2022/05/18 00:38:14;;;;;;;352.10;224.65;;;;;;;22.38;55.38;99244.44;337113;29;917;-78
2022/05/18 00:38:25;;;;;;;349.83;222.32;;;;;;;22.39;55.44;99252.28;339700;29;1032;-78
2022/05/18 00:38:35;;;;;;;347.02;220.02;;;;;;;22.36;55.47;99249.91;338413;29;744;-78
2022/05/18 00:38:46;;;;;;;351.87;223.33;;;;;;;22.37;55.54;99250.75;337874;29;1484;-78
2022/05/18 00:38:56;;;;;;;354.08;227.25;;;;;;;22.37;55.65;99250.75;337096;29;1455;-78
2022/05/18 00:39:06;;;;;;;354.67;228.73;;;;;;;22.39;55.40;99249.63;339667;29;764;-78
2022/05/18 00:39:17;;;;;;;353.10;228.17;;;;;;;22.37;55.63;99240.09;339420;29;1519;-78
2022/05/18 00:39:27;;;;;;;354.77;228.38;;;;;;;22.34;55.73;99249.22;338118;29;1265;-78
2022/05/18 00:39:38;;;;;;;354.97;228.50;;;;;;;22.32;55.77;99242.34;337637;29;1537;-78
2022/05/18 00:39:48;;;;;;;353.15;225.90;;;;;;;22.31;55.75;99240.69;336867;29;1131;-77
2022/05/18 00:40:00;;;;;;;351.90;222.77;;;;;;;22.33;55.86;99241.38;337280;29;830;-77
2022/05/18 00:40:12;;;;;;;353.48;223.32;;;;;;;22.31;55.61;99243.34;339646;29;1383;-78
2022/05/18 00:40:23;;;;;;;350.17;223.18;;;;;;;22.35;55.75;99244.72;340494;29;1627;-78
2022/05/18 00:40:34;;;;;;;352.70;226.90;;;;;;;22.36;55.40;99243.75;338421;29;1101;-77
2022/05/18 00:40:46;;;;;;;351.48;227.63;;;;;;;22.38;55.76;99241.78;336803;29;1666;-77
2022/05/18 00:40:56;;;;;;;351.27;227.70;;;;;;;22.36;55.46;99241.91;334377;29;1293;-77
2022/05/18 00:41:06;;;;;;;347.80;223.33;;;;;;;22.38;55.47;99242.63;336061;29;1174;-78
2022/05/18 00:41:19;;;;;;;347.30;221.90;;;;;;;22.36;55.77;99244.59;335836;29;914;-78
2022/05/18 00:41:30;;;;;;;348.50;221.45;;;;;;;22.36;55.62;99244.59;339476;29;842;-78
2022/05/18 00:41:40;;;;;;;352.00;225.57;;;;;;;22.35;55.45;99236.72;338273;29;1155;-78
2022/05/18 00:41:51;;;;;;;354.25;227.73;;;;;;;22.36;55.61;99238.41;335761;29;1408;-78
2022/05/18 00:42:01;;;;;;;354.70;230.90;;;;;;;22.35;55.75;99242.06;335375;29;1598;-76
2022/05/18 00:42:22;;;;;;;353.73;230.32;;;;;;;22.35;55.93;99242.91;334380;29;1651;-76
2022/05/18 00:42:35;;;;;;;350.90;227.13;;;;;;;22.35;55.91;99236.72;338255;29;1300;-77
2022/05/18 00:42:46;;;;;;;350.98;227.82;;;;;;;22.31;55.79;99246.84;339911;29;1146;-78
2022/05/18 00:42:56;;;;;;;352.03;226.13;;;;;;;22.30;55.40;99249.66;340412;29;1606;-78
2022/05/18 00:43:16;;;;;;;351.67;223.50;;;;;;;22.29;55.45;99253.31;338541;29;839;-78
2022/05/18 00:43:29;;;;;;;348.92;219.15;;;;;;;22.30;55.50;99236.31;336972;29;1247;-77
2022/05/18 00:43:42;;;;;;;347.95;216.95;;;;;;;22.29;55.94;99242.66;337105;29;910;-77
2022/05/18 00:43:52;;;;;;;350.48;222.10;;;;;;;22.27;55.57;99250.78;337493;29;1265;-77
2022/05/18 00:44:03;;;;;;;354.63;226.60;;;;;;;22.22;56.01;99247.72;337533;29;1304;-77
2022/05/18 00:44:13;;;;;;;357.70;230.40;;;;;;;22.17;56.04;99250.81;336995;29;1308;-77
2022/05/18 00:44:25;;;;;;;360.07;231.17;;;;;;;22.19;55.79;99243.50;339690;29;1523;-77
2022/05/18 00:44:35;;;;;;;355.70;230.38;;;;;;;22.19;56.06;99242.69;338279;29;824;-77
2022/05/18 00:44:46;;;;;;;354.97;230.90;;;;;;;22.21;55.84;99246.88;335489;29;3575;-77
2022/05/18 00:44:56;;;;;;;352.13;229.95;;;;;;;22.23;55.55;99250.25;336786;29;3179;-76
2022/05/18 00:45:07;;;;;;;353.33;231.20;;;;;;;22.25;55.80;99244.75;338317;29;3085;-76
2022/05/18 00:45:19;;;;;;;353.30;228.40;;;;;;;22.24;55.76;99237.75;337675;29;1907;-76
2022/05/18 00:45:31;;;;;;;354.13;226.57;;;;;;;22.24;55.50;99238.59;336118;29;3300;-76
2022/05/18 00:45:41;;;;;;;351.13;224.23;;;;;;;22.26;55.54;99246.44;337126;29;922;-76
2022/05/18 00:45:51;;;;;;;351.97;224.13;;;;;;;22.28;55.65;99248.97;338427;29;1178;-76
2022/05/18 00:46:05;;;;;;;353.37;225.83;;;;;;;22.30;55.88;99237.16;337142;29;865;-76
2022/05/18 00:46:15;;;;;;;353.50;222.18;;;;;;;22.29;55.75;99237.31;336965;29;1376;-76
2022/05/18 00:46:25;;;;;;;352.30;218.17;;;;;;;22.29;55.75;99231.97;338711;29;1223;-76
2022/05/18 00:46:36;;;;;;;355.33;220.60;;;;;;;22.31;55.55;99240.69;338235;29;1371;-77
2022/05/18 00:46:46;;;;;;;354.27;223.75;;;;;;;22.33;55.58;99239.53;335702;29;1245;-77
2022/05/18 00:46:57;;;;;;;356.43;227.07;;;;;;;22.34;55.35;99235.91;339567;29;1190;-77
2022/05/18 00:47:07;;;;;;;355.33;226.23;;;;;;;22.34;55.84;99229.72;339675;29;1218;-77
2022/05/18 00:47:17;;;;;;;357.40;229.07;;;;;;;22.39;55.39;99243.44;339580;29;1378;-77
2022/05/18 00:47:28;;;;;;;353.73;228.20;;;;;;;22.36;55.64;99233.91;337091;29;764;-77
2022/05/18 00:47:38;;;;;;;354.70;229.57;;;;;;;22.42;55.74;99237.81;337050;29;1355;-77
2022/05/18 00:47:49;;;;;;;351.33;224.97;;;;;;;22.42;55.51;99243.16;338554;29;853;-77
2022/05/18 00:47:59;;;;;;;352.75;226.75;;;;;;;22.40;55.69;99231.81;339647;29;1138;-77
2022/05/18 00:48:10;;;;;;;352.33;227.67;;;;;;;22.39;55.51;99230.13;335912;29;1367;-77
2022/05/18 00:48:20;;;;;;;353.73;229.43;;;;;;;22.42;55.78;99237.81;340924;29;1229;-77
2022/05/18 00:48:30;;;;;;;353.13;226.37;;;;;;;22.40;55.64;99239.81;339640;29;1445;-77
2022/05/18 00:48:41;;;;;;;352.98;225.00;;;;;;;22.37;55.76;99230.25;338380;29;1158;-77
2022/05/18 00:48:53;;;;;;;351.77;225.25;;;;;;;22.38;55.41;99236.44;338309;29;1312;-77
2022/05/18 00:49:06;;;;;;;351.95;227.25;;;;;;;22.36;55.54;99239.25;337528;29;1502;-77
2022/05/18 00:49:17;;;;;;;349.98;225.27;;;;;;;22.38;55.45;99236.44;336356;29;1485;-77
2022/05/18 00:49:27;;;;;;;349.87;226.33;;;;;;;22.39;55.85;99238.97;336844;29;1317;-77
2022/05/18 00:49:38;;;;;;;349.10;223.97;;;;;;;22.40;55.86;99231.81;339646;29;1356;-77
2022/05/18 00:49:57;;;;;;;351.25;227.52;;;;;;;22.44;55.39;99235.84;336760;29;1336;-77
2022/05/18 00:50:31;;;;;;;351.77;229.98;;;;;;;22.38;55.86;99231.94;337732;29;1789;-77
2022/05/18 00:50:42;;;;;;;348.30;227.20;;;;;;;22.36;55.69;99238.41;334011;29;882;-77
2022/05/18 00:50:53;;;;;;;352.08;228.05;;;;;;;22.34;55.68;99229.72;336549;29;1237;-77
2022/05/18 00:51:05;;;;;;;353.58;229.45;;;;;;;22.34;55.65;99235.06;339641;29;1192;-77
2022/05/18 00:51:19;;;;;;;352.25;227.93;;;;;;;22.31;55.77;99232.69;338367;29;1276;-77